createdAt,value
2022-08-17T00:01:38.496Z,43.65
2022-08-17T00:04:19.107Z,43.71
2022-08-17T00:06:45.829Z,43.32
2022-08-17T00:09:18.263Z,43.14
2022-08-17T00:12:41.040Z,43.10
2022-08-17T00:14:35.003Z,43.29
2022-08-17T00:17:03.618Z,42.89
2022-08-17T00:19:32.445Z,42.86
2022-08-17T00:22:33.753Z,43.07
2022-08-17T00:24:49.867Z,43.33
2022-08-17T00:27:17.200Z,43.23
2022-08-17T00:29:45.731Z,43.16
2022-08-17T00:33:15.479Z,43.03
2022-08-17T00:35:00.530Z,43.94
2022-08-17T00:37:27.284Z,44.80
2022-08-17T00:39:53.960Z,44.25
2022-08-17T00:42:20.548Z,43.55
2022-08-17T00:44:47.268Z,43.49
2022-08-17T00:47:13.862Z,43.66
2022-08-17T00:49:40.446Z,43.60
2022-08-17T00:52:15.517Z,43.42
2022-08-17T00:54:46.990Z,44.12
2022-08-17T00:57:25.004Z,43.66
2022-08-17T01:00:03.214Z,43.66
2022-08-17T01:02:41.768Z,43.87
2022-08-17T01:05:19.175Z,43.64
2022-08-17T01:07:47.811Z,43.80
2022-08-17T01:10:58.995Z,44.15
2022-08-17T01:13:04.069Z,44.31
2022-08-17T01:15:33.795Z,43.97
2022-08-17T01:18:00.509Z,43.48
2022-08-17T01:20:27.631Z,43.13
2022-08-17T01:22:54.283Z,44.01
2022-08-17T01:25:21.525Z,44.70
2022-08-17T01:27:48.698Z,44.56
2022-08-17T01:30:58.802Z,45.16
2022-08-17T01:33:04.291Z,45.25
2022-08-17T01:35:30.888Z,44.99
2022-08-17T01:37:57.573Z,44.55
2022-08-17T01:40:39.736Z,44.31
2022-08-17T01:43:19.931Z,45.47
2022-08-17T01:46:03.874Z,45.72
2022-08-17T01:48:33.455Z,44.64
2022-08-17T01:51:00.378Z,44.74
2022-08-17T01:53:32.811Z,45.45
2022-08-17T01:56:04.974Z,46.43
2022-08-17T01:58:34.062Z,48.14
2022-08-17T02:01:02.765Z,49.03
2022-08-17T02:03:30.219Z,47.96
2022-08-17T02:05:57.267Z,48.60
2022-08-17T02:08:37.274Z,47.12
2022-08-17T02:11:11.493Z,46.38
2022-08-17T02:13:38.458Z,46.07
2022-08-17T02:16:05.468Z,46.27
2022-08-17T02:18:32.039Z,46.31
2022-08-17T02:20:58.933Z,46.88
2022-08-17T02:23:28.522Z,45.57
2022-08-17T02:25:57.638Z,46.66
2022-08-17T02:28:24.587Z,46.41
2022-08-17T02:31:02.705Z,47.18
2022-08-17T02:33:41.680Z,46.77
2022-08-17T02:36:12.637Z,46.40
2022-08-17T02:38:40.574Z,45.38
2022-08-17T02:41:07.203Z,45.56
2022-08-17T02:43:34.042Z,46.35
2022-08-17T02:46:00.718Z,46.01
2022-08-17T02:48:28.068Z,46.82
2022-08-17T02:50:57.984Z,48.43
2022-08-17T02:53:24.563Z,48.64
2022-08-17T02:55:52.490Z,48.48
2022-08-17T02:58:34.635Z,49.60
2022-08-17T03:01:05.793Z,50.39
2022-08-17T03:03:33.064Z,48.99
2022-08-17T03:05:59.702Z,47.74
2022-08-17T03:08:27.242Z,47.34
2022-08-17T03:10:54.090Z,48.09
2022-08-17T03:13:20.828Z,50.60
2022-08-17T03:15:48.397Z,49.30
2022-08-17T03:18:25.409Z,49.51
2022-08-17T03:20:58.650Z,48.67
2022-08-17T03:23:27.295Z,48.77
2022-08-17T03:25:54.834Z,48.04
2022-08-17T03:28:23.443Z,47.40
2022-08-17T03:30:51.245Z,46.81
2022-08-17T03:33:19.115Z,46.88
2022-08-17T03:35:46.050Z,47.96
2022-08-17T03:38:15.838Z,47.69
2022-08-17T03:40:57.942Z,48.10
2022-08-17T03:43:28.111Z,48.55
2022-08-17T03:46:27.823Z,47.91
2022-08-17T03:49:14.835Z,48.93
2022-08-17T03:52:00.083Z,49.49
2022-08-17T03:54:45.360Z,48.53
2022-08-17T03:57:12.401Z,47.92
2022-08-17T03:59:39.549Z,47.89
2022-08-17T04:02:21.346Z,47.78
2022-08-17T04:04:50.800Z,49.09
2022-08-17T04:07:19.523Z,50.00
2022-08-17T04:09:46.413Z,50.01
2022-08-17T04:12:16.121Z,50.51
2022-08-17T04:14:51.920Z,51.01
2022-08-17T04:17:27.668Z,50.54
2022-08-17T04:19:55.483Z,50.44
2022-08-17T04:22:31.024Z,51.62
2022-08-17T04:25:29.760Z,53.56
2022-08-17T04:27:57.006Z,51.17
2022-08-17T04:30:23.680Z,51.41
2022-08-17T04:33:04.002Z,51.16
2022-08-17T04:35:37.582Z,51.96
2022-08-17T04:38:05.059Z,50.98
2022-08-17T04:40:50.312Z,51.13
2022-08-17T04:43:19.752Z,51.02
2022-08-17T04:46:07.478Z,50.39
2022-08-17T04:48:37.729Z,50.59
2022-08-17T04:51:11.730Z,50.11
2022-08-17T04:53:42.108Z,49.20
2022-08-17T04:56:11.653Z,49.57
2022-08-17T04:58:49.109Z,48.98
2022-08-17T05:01:17.445Z,49.77
2022-08-17T05:03:50.146Z,49.56
2022-08-17T05:06:16.795Z,49.82
2022-08-17T05:08:43.447Z,50.13
2022-08-17T05:11:10.418Z,50.95
2022-08-17T05:13:37.115Z,51.32
2022-08-17T05:16:04.595Z,51.84
2022-08-17T05:18:32.002Z,51.03
2022-08-17T05:20:58.902Z,51.14
2022-08-17T05:23:27.681Z,51.52
2022-08-17T05:26:09.525Z,51.89
2022-08-17T05:28:39.777Z,51.05
2022-08-17T05:31:06.854Z,51.33
2022-08-17T05:33:38.193Z,50.67
2022-08-17T05:36:08.819Z,51.04
2022-08-17T05:38:55.403Z,50.68
2022-08-17T05:41:21.970Z,50.66
2022-08-17T05:43:51.837Z,50.46
2022-08-17T05:46:28.536Z,50.62
2022-08-17T05:49:08.050Z,51.55
2022-08-17T05:52:01.197Z,51.14
2022-08-17T05:54:43.005Z,50.31
2022-08-17T05:57:35.979Z,50.03
2022-08-17T06:00:30.826Z,49.50
2022-08-17T06:03:10.751Z,49.96
2022-08-17T06:05:59.829Z,50.03
2022-08-17T06:08:56.246Z,50.36
2022-08-17T06:11:28.841Z,49.61
2022-08-17T06:14:04.400Z,49.12
2022-08-17T06:16:38.559Z,49.42
2022-08-17T06:19:14.799Z,49.36
2022-08-17T06:21:46.625Z,49.10
2022-08-17T06:24:31.521Z,48.75
2022-08-17T06:27:06.460Z,48.60
2022-08-17T06:29:49.986Z,48.79
2022-08-17T06:32:17.198Z,48.71
2022-08-17T06:34:46.022Z,48.33
2022-08-17T06:37:19.011Z,48.43
2022-08-17T06:39:58.262Z,48.80
2022-08-17T06:42:54.738Z,48.90
2022-08-17T06:45:42.099Z,48.34
2022-08-17T06:48:25.803Z,48.12
2022-08-17T06:50:58.616Z,47.95
2022-08-17T06:53:45.182Z,47.97
2022-08-17T06:56:21.812Z,48.02
2022-08-17T06:58:49.571Z,47.32
2022-08-17T07:01:21.048Z,47.47
2022-08-17T07:03:59.056Z,46.93
2022-08-17T07:06:40.812Z,46.97
2022-08-17T07:09:13.040Z,46.65
2022-08-17T07:11:56.520Z,46.40
2022-08-17T07:14:37.766Z,46.33
2022-08-17T07:17:14.233Z,45.56
2022-08-17T07:19:45.662Z,45.59
2022-08-17T07:22:55.263Z,45.46
2022-08-17T07:25:26.227Z,45.28
2022-08-17T07:27:55.957Z,45.94
2022-08-17T07:30:22.521Z,45.84
2022-08-17T07:32:53.415Z,45.53
2022-08-17T07:35:22.986Z,45.48
2022-08-17T07:38:25.788Z,45.52
2022-08-17T07:40:57.716Z,45.27
2022-08-17T07:43:31.870Z,44.93
2022-08-17T07:46:32.608Z,44.80
2022-08-17T07:49:08.057Z,44.71
2022-08-17T07:51:36.629Z,44.94
2022-08-17T07:54:15.201Z,44.65
2022-08-17T07:56:50.976Z,44.74
2022-08-17T07:59:24.218Z,45.68
2022-08-17T08:01:57.996Z,45.91
2022-08-17T08:05:00.241Z,45.68
2022-08-17T08:07:20.914Z,44.96
2022-08-17T08:10:00.880Z,45.34
2022-08-17T08:12:43.409Z,45.38
2022-08-17T08:15:18.505Z,45.74
2022-08-17T08:17:52.968Z,45.57
2022-08-17T08:20:55.541Z,45.78
2022-08-17T08:23:54.400Z,46.06
2022-08-17T08:26:39.553Z,45.83
2022-08-17T08:29:29.343Z,46.01
2022-08-17T08:32:03.570Z,46.60
2022-08-17T08:35:01.163Z,46.81
2022-08-17T08:37:42.866Z,46.54
2022-08-17T08:40:47.570Z,46.26
2022-08-17T08:43:31.074Z,46.73
2022-08-17T08:46:05.018Z,47.75
2022-08-17T08:49:12.216Z,46.59
2022-08-17T08:51:55.549Z,47.20
2022-08-17T08:54:51.950Z,47.48
2022-08-17T08:57:34.505Z,47.56
2022-08-17T09:00:27.614Z,47.98
2022-08-17T09:03:31.732Z,47.88
2022-08-17T09:06:33.408Z,48.02
2022-08-17T09:09:47.909Z,46.48
2022-08-17T09:12:29.806Z,46.38
2022-08-17T09:15:17.604Z,45.70
2022-08-17T09:18:28.455Z,45.48
2022-08-17T09:20:51.004Z,46.30
2022-08-17T09:23:32.552Z,46.73
2022-08-17T09:26:20.995Z,46.71
2022-08-17T09:28:51.096Z,46.66
2022-08-17T09:31:23.972Z,47.38
2022-08-17T09:33:51.442Z,46.57
2022-08-17T09:36:26.234Z,46.92
2022-08-17T09:39:01.627Z,46.48
2022-08-17T09:41:58.005Z,46.17
2022-08-17T09:44:42.730Z,45.79
2022-08-17T09:47:09.913Z,45.61
2022-08-17T09:49:49.643Z,45.39
2022-08-17T09:52:27.424Z,45.60
2022-08-17T09:54:56.801Z,44.97
2022-08-17T09:57:30.200Z,45.12
2022-08-17T10:00:25.464Z,45.67
2022-08-17T10:03:00.736Z,44.84
2022-08-17T10:05:37.635Z,44.02
2022-08-17T10:08:27.600Z,43.74
2022-08-17T10:11:54.380Z,43.75
2022-08-17T10:14:38.085Z,43.88
2022-08-17T10:17:28.076Z,43.63
2022-08-17T10:20:11.113Z,43.54
2022-08-17T10:23:22.701Z,43.80
2022-08-17T10:26:14.519Z,43.82
2022-08-17T10:28:41.054Z,43.79
2022-08-17T10:31:33.802Z,43.20
2022-08-17T10:34:23.248Z,42.97
2022-08-17T10:37:31.468Z,42.88
2022-08-17T10:40:05.315Z,42.78
2022-08-17T10:42:50.122Z,42.81
2022-08-17T10:45:26.173Z,42.88
2022-08-17T10:48:21.567Z,41.92
2022-08-17T10:51:01.439Z,42.69
2022-08-17T10:53:40.659Z,42.41
2022-08-17T10:56:13.060Z,42.22
2022-08-17T10:58:47.449Z,42.00
2022-08-17T11:01:14.078Z,41.78
2022-08-17T11:03:58.866Z,41.86
2022-08-17T11:06:44.979Z,43.96
2022-08-17T11:09:41.587Z,45.80
2022-08-17T11:12:15.442Z,45.75
2022-08-17T11:15:14.443Z,45.87
2022-08-17T11:17:50.182Z,45.77
2022-08-17T11:20:58.077Z,48.30
2022-08-17T11:23:27.965Z,49.35
2022-08-17T11:25:59.759Z,48.89
2022-08-17T11:28:34.364Z,49.48
2022-08-17T11:31:44.058Z,51.03
2022-08-17T11:34:27.033Z,51.58
2022-08-17T11:37:07.593Z,51.01
2022-08-17T11:39:34.361Z,51.32
2022-08-17T11:42:38.756Z,50.55
2022-08-17T11:45:32.434Z,49.89
2022-08-17T11:48:56.208Z,49.39
2022-08-17T11:51:43.785Z,49.16
2022-08-17T11:54:33.688Z,48.87
2022-08-17T11:57:26.493Z,47.48
2022-08-17T11:59:58.545Z,46.48
2022-08-17T12:02:31.506Z,45.05
2022-08-17T12:05:12.303Z,42.74
2022-08-17T12:07:46.667Z,43.43
2022-08-17T12:10:17.549Z,42.15
2022-08-17T12:12:44.942Z,41.60
2022-08-17T12:15:18.692Z,40.32
2022-08-17T12:17:55.051Z,39.97
2022-08-17T12:20:38.541Z,39.65
2022-08-17T12:23:13.804Z,38.18
2022-08-17T12:25:46.505Z,38.49
2022-08-17T12:28:29.008Z,38.15
2022-08-17T12:31:02.837Z,38.43
2022-08-17T12:33:29.638Z,39.55
2022-08-17T12:36:03.254Z,39.67
2022-08-17T12:38:34.430Z,39.50
2022-08-17T12:41:21.753Z,39.35
2022-08-17T12:43:58.562Z,38.44
2022-08-17T12:46:25.136Z,38.14
2022-08-17T12:49:11.510Z,38.25
2022-08-17T12:51:44.265Z,37.44
2022-08-17T12:54:24.208Z,36.83
2022-08-17T12:56:50.881Z,36.59
2022-08-17T12:59:30.013Z,36.37
2022-08-17T13:01:57.634Z,36.63
2022-08-17T13:04:24.674Z,36.48
2022-08-17T13:06:59.956Z,36.34
2022-08-17T13:09:35.379Z,35.75
2022-08-17T13:12:03.038Z,35.35
2022-08-17T13:14:33.367Z,34.87
2022-08-17T13:17:09.668Z,35.39
2022-08-17T13:19:48.207Z,34.87
2022-08-17T13:22:15.056Z,35.03
2022-08-17T13:24:53.040Z,34.36
2022-08-17T13:27:21.639Z,34.51
2022-08-17T13:29:55.730Z,34.08
2022-08-17T13:32:44.107Z,34.04
2022-08-17T13:35:35.373Z,34.63
2022-08-17T13:38:16.398Z,34.22
2022-08-17T13:40:50.161Z,34.33
2022-08-17T13:43:40.318Z,34.37
2022-08-17T13:46:10.659Z,35.13
2022-08-17T13:48:37.532Z,34.28
2022-08-17T13:51:13.585Z,34.18
2022-08-17T13:53:40.420Z,33.45
2022-08-17T13:56:37.932Z,33.63
2022-08-17T13:59:12.594Z,33.73
2022-08-17T14:01:53.483Z,33.65
2022-08-17T14:04:24.056Z,33.31
2022-08-17T14:07:13.293Z,32.87
2022-08-17T14:09:48.693Z,33.38
2022-08-17T14:12:20.074Z,33.29
2022-08-17T14:14:47.131Z,32.76
2022-08-17T14:17:13.837Z,32.65
2022-08-17T14:19:40.439Z,33.00
2022-08-17T14:22:11.542Z,32.96
2022-08-17T14:24:44.657Z,32.58
2022-08-17T14:27:17.955Z,32.25
2022-08-17T14:29:44.806Z,32.07
2022-08-17T14:32:18.868Z,32.43
2022-08-17T14:34:46.341Z,31.67
2022-08-17T14:37:13.252Z,32.01
2022-08-17T14:39:39.990Z,31.85
2022-08-17T14:42:06.892Z,32.36
2022-08-17T14:44:33.466Z,31.41
2022-08-17T14:47:00.106Z,31.45
2022-08-17T14:49:26.911Z,31.35
2022-08-17T14:51:53.906Z,31.51
2022-08-17T14:54:32.977Z,31.50
2022-08-17T14:57:22.714Z,32.37
2022-08-17T14:59:53.195Z,32.40
2022-08-17T15:02:29.891Z,32.24
2022-08-17T15:05:03.972Z,32.12
2022-08-17T15:07:31.387Z,32.05
2022-08-17T15:10:00.512Z,32.32
2022-08-17T15:12:32.273Z,32.20
2022-08-17T15:15:01.019Z,31.88
2022-08-17T15:17:43.865Z,31.10
2022-08-17T15:20:21.400Z,31.30
2022-08-17T15:22:49.833Z,31.08
2022-08-17T15:25:19.067Z,31.85
2022-08-17T15:27:46.123Z,31.29
2022-08-17T15:30:13.173Z,31.25
2022-08-17T15:32:50.885Z,30.81
2022-08-17T15:35:27.209Z,30.98
2022-08-17T15:37:56.608Z,31.26
2022-08-17T15:40:23.356Z,31.40
2022-08-17T15:42:51.084Z,31.35
2022-08-17T15:45:22.911Z,30.98
2022-08-17T15:47:49.671Z,31.49
2022-08-17T15:50:16.472Z,30.80
2022-08-17T15:52:44.893Z,30.93
2022-08-17T15:55:13.519Z,30.81
2022-08-17T15:57:40.623Z,30.79
2022-08-17T16:00:09.281Z,30.60
2022-08-17T16:03:45.711Z,31.02
2022-08-17T16:05:31.080Z,30.75
2022-08-17T16:07:59.550Z,31.27
2022-08-17T16:10:35.609Z,31.19
2022-08-17T16:13:04.108Z,31.36
2022-08-17T16:15:33.570Z,31.40
2022-08-17T16:18:00.292Z,31.13
2022-08-17T16:20:27.206Z,31.27
2022-08-17T16:22:54.988Z,31.43
2022-08-17T16:25:38.844Z,31.40
2022-08-17T16:28:15.363Z,31.04
2022-08-17T16:30:42.232Z,30.95
2022-08-17T16:33:11.313Z,31.42
2022-08-17T16:35:38.028Z,31.88
2022-08-17T16:38:04.770Z,31.97
2022-08-17T16:40:36.129Z,31.69
2022-08-17T16:43:04.354Z,31.51
2022-08-17T16:45:36.813Z,31.71
2022-08-17T16:48:04.352Z,31.95
2022-08-17T16:50:31.990Z,32.05
2022-08-17T16:53:10.750Z,31.90
2022-08-17T16:55:38.369Z,32.11
2022-08-17T16:58:06.775Z,31.92
2022-08-17T17:00:34.122Z,32.18
2022-08-17T17:03:19.865Z,32.46
2022-08-17T17:06:08.216Z,32.76
2022-08-17T17:08:46.620Z,32.93
2022-08-17T17:11:22.130Z,32.99
2022-08-17T17:13:54.987Z,32.95
2022-08-17T17:16:36.821Z,33.18
2022-08-17T17:19:17.872Z,33.36
2022-08-17T17:22:15.090Z,33.88
2022-08-17T17:25:04.914Z,33.95
2022-08-17T17:28:18.526Z,34.04
2022-08-17T17:30:56.709Z,33.98
2022-08-17T17:33:35.232Z,34.10
2022-08-17T17:36:38.095Z,33.94
2022-08-17T17:39:10.514Z,34.37
2022-08-17T17:41:41.685Z,34.29
2022-08-17T17:44:15.253Z,34.15
2022-08-17T17:46:53.047Z,34.39
2022-08-17T17:49:20.001Z,34.63
2022-08-17T17:52:09.643Z,34.81
2022-08-17T17:55:22.489Z,34.49
2022-08-17T17:58:00.688Z,34.84
2022-08-17T18:00:38.797Z,34.06
2022-08-17T18:03:26.806Z,34.01
2022-08-17T18:06:13.561Z,34.26
2022-08-17T18:09:19.306Z,35.19
2022-08-17T18:12:08.971Z,35.44
2022-08-17T18:14:58.265Z,35.71
2022-08-17T18:17:25.008Z,36.26
2022-08-17T18:19:55.291Z,37.21
2022-08-17T18:22:23.162Z,36.87
2022-08-17T18:24:56.456Z,37.16
2022-08-17T18:27:33.168Z,36.84
2022-08-17T18:30:20.803Z,36.37
2022-08-17T18:32:47.391Z,36.22
2022-08-17T18:35:14.261Z,36.44
2022-08-17T18:37:47.418Z,36.75
2022-08-17T18:40:17.046Z,37.20
2022-08-17T18:42:56.191Z,37.93
2022-08-17T18:45:33.592Z,39.11
2022-08-17T18:48:00.166Z,39.53
2022-08-17T18:50:35.864Z,39.35
2022-08-17T18:53:40.814Z,40.31
2022-08-17T18:56:31.327Z,40.73
2022-08-17T18:59:04.451Z,40.39
2022-08-17T19:01:42.027Z,40.49
2022-08-17T19:05:03.378Z,40.53
2022-08-17T19:07:45.647Z,41.94
2022-08-17T19:10:24.264Z,42.71
2022-08-17T19:13:15.559Z,41.92
2022-08-17T19:16:12.190Z,41.28
2022-08-17T19:18:48.412Z,40.90
2022-08-17T19:21:45.038Z,40.76
2022-08-17T19:24:22.281Z,40.75
2022-08-17T19:27:19.592Z,41.32
2022-08-17T19:30:01.723Z,41.20
2022-08-17T19:32:34.644Z,41.26
2022-08-17T19:35:03.520Z,41.58
2022-08-17T19:37:34.422Z,42.01
2022-08-17T19:40:10.066Z,41.45
2022-08-17T19:42:49.729Z,41.13
2022-08-17T19:45:32.627Z,40.34
2022-08-17T19:48:27.507Z,40.36
2022-08-17T19:51:13.659Z,40.47
2022-08-17T19:54:06.774Z,40.11
2022-08-17T19:56:51.194Z,40.09
2022-08-17T19:59:48.549Z,41.02
2022-08-17T20:02:33.153Z,40.86
2022-08-17T20:05:06.166Z,41.26
2022-08-17T20:07:44.606Z,41.21
2022-08-17T20:10:20.938Z,40.75
2022-08-17T20:12:50.937Z,40.45
2022-08-17T20:15:29.448Z,41.22
2022-08-17T20:17:59.747Z,42.09
2022-08-17T20:20:46.900Z,42.25
2022-08-17T20:23:28.661Z,44.10
2022-08-17T20:26:27.025Z,44.53
2022-08-17T20:29:16.585Z,45.02
2022-08-17T20:31:49.501Z,44.69
2022-08-17T20:34:38.088Z,44.27
2022-08-17T20:37:08.798Z,44.14
2022-08-17T20:39:40.552Z,44.29
2022-08-17T20:42:22.229Z,44.63
2022-08-17T20:44:52.734Z,44.35
2022-08-17T20:47:32.608Z,43.62
2022-08-17T20:50:13.505Z,43.23
2022-08-17T20:52:53.957Z,42.67
2022-08-17T20:55:35.814Z,42.96
2022-08-17T20:58:18.487Z,42.87
2022-08-17T21:00:57.324Z,43.05
2022-08-17T21:03:24.120Z,42.81
2022-08-17T21:06:16.947Z,42.93
2022-08-17T21:09:06.556Z,42.95
2022-08-17T21:11:56.748Z,43.40
2022-08-17T21:14:56.104Z,43.26
2022-08-17T21:17:46.565Z,42.97
2022-08-17T21:21:05.315Z,43.22
2022-08-17T21:23:55.224Z,44.52
2022-08-17T21:26:50.631Z,46.82
2022-08-17T21:29:32.046Z,45.61
2022-08-17T21:31:59.298Z,45.37
2022-08-17T21:34:33.126Z,45.81
2022-08-17T21:37:29.509Z,45.68
2022-08-17T21:40:18.324Z,46.38
2022-08-17T21:42:49.282Z,46.68
2022-08-17T21:45:35.465Z,47.09
2022-08-17T21:48:15.948Z,48.54
2022-08-17T21:51:05.734Z,48.76
2022-08-17T21:53:46.996Z,47.25
2022-08-17T21:56:23.128Z,47.29
2022-08-17T21:58:57.191Z,47.63
2022-08-17T22:01:28.165Z,49.71
2022-08-17T22:03:58.034Z,50.58
2022-08-17T22:06:37.326Z,52.25
2022-08-17T22:09:09.753Z,52.65
2022-08-17T22:11:48.417Z,52.93
2022-08-17T22:14:52.629Z,52.34
2022-08-17T22:17:26.324Z,53.02
2022-08-17T22:20:00.150Z,53.71
2022-08-17T22:22:31.243Z,54.56
2022-08-17T22:25:08.522Z,54.62
2022-08-17T22:27:48.811Z,54.70
2022-08-17T22:30:30.309Z,54.86
2022-08-17T22:32:57.726Z,56.15
2022-08-17T22:35:43.493Z,56.71
2022-08-17T22:38:19.503Z,58.88
2022-08-17T22:40:52.590Z,61.39
2022-08-17T22:43:26.309Z,62.17
2022-08-17T22:45:56.801Z,61.89
2022-08-17T22:48:27.753Z,61.74
2022-08-17T22:51:13.710Z,61.86
2022-08-17T22:54:08.377Z,62.26
2022-08-17T22:56:54.120Z,61.83
2022-08-17T22:59:51.154Z,62.21
2022-08-17T23:02:22.904Z,61.90
2022-08-17T23:05:10.022Z,62.36
2022-08-17T23:07:37.244Z,62.62
2022-08-17T23:10:06.412Z,60.60
2022-08-17T23:12:38.857Z,60.41
2022-08-17T23:15:14.303Z,58.69
2022-08-17T23:17:42.003Z,56.93
2022-08-17T23:20:13.930Z,55.08
2022-08-17T23:22:52.577Z,54.38
2022-08-17T23:25:26.405Z,53.90
2022-08-17T23:27:53.237Z,53.93
2022-08-17T23:30:20.308Z,53.70
2022-08-17T23:32:53.331Z,54.33
2022-08-17T23:35:40.187Z,53.93
2022-08-17T23:38:11.702Z,54.92
2022-08-17T23:40:39.312Z,56.62
2022-08-17T23:43:23.607Z,54.78
2022-08-17T23:45:52.859Z,56.08
2022-08-17T23:48:36.271Z,56.42
2022-08-17T23:51:20.224Z,53.85
2022-08-17T23:53:52.742Z,53.92
2022-08-17T23:56:25.898Z,54.84
2022-08-17T23:58:55.006Z,52.85
